Terminal Aerodrome Forecast
Issued by NWS

Home | Current Version | Previous Version | Text Only | Print | Product List | Glossary On
Versions: 1 2 3 4 5 6 7 8 9 10 11 12 13 14 15 16 17 18 19 20 21 22 23 24 25 26
000
FTUS41 KBUF 312339
TAFJHW
TAF
KJHW 312339Z 0100/0124 24011KT P6SM VCSH BKN050
     FM010700 23005KT P6SM BKN050
     FM011600 27013KT P6SM BKN040
     FM011900 27014G20KT P6SM BKN050
     FM012200 27012KT P6SM BKN050
      AMD LTD TO CLD VIS AND WIND=

USA.gov is the U.S. government's official web portal to all federal, state and local government web resources and services.